Eye, United Kingdom
Current Conditions -  °F | °C
As of 10:50 PM on Saturday 25 Oct 2014 (Local Time) from EGUW Reporting Station
Broken Clouds Broken Clouds  
Wind Chill: 52°   Ceiling: 3200
Heat Index: 52°   Visibility: 6mi
Dew Point: 46°   Wind: 8mph
Humidity: 82%   Direction: 210°SSW
Pressure: 30.12"   Gusts: NA
Location:  52.32°N, 1.15°E
Report Text: EGUW 252150Z AUTO 21007KT 9999 BKN032/// 11/08 Q1020
Loading
Personal Weather Stations






























Interactive Weather Map
Tropical Storm Tracking
New forecast layout! Learn more

10-Day Weather Forecast

Advertisements
Track Severe Weather on mobile